Flight Track Log - Related Links

Times and Time Zones

All times are in EST time to prevent confusion due to time zone crossing. See the UAL139 flight status page for this flight to view local times or setup timezone preferences in your user account.

Time Position Orientation Groundspeed Altitude Reporting Facility
EST Latitude Longitude Course Direction KTS MPH feet Rate Location/Type
Fri 02:34:49 PM 39.8582 -104.6754 29° Northeast 5,600  Level FlightAware ADS-B
Fri 02:51:28 PM 39.8407 -104.6917 271° West 96 110 5,600 -6 Level FlightAware ADS-B
Fri 02:51:51 PM 39.8408 -104.7098 271° West 173 199 5,500 632 Descending FlightAware ADS-B
Fri 02:52:06 PM 39.8410 -104.7284 271° West 190 219 6,000 2,057 Climbing FlightAware ADS-B
Fri 02:52:26 PM 39.8432 -104.7505 278° West 195 224 6,700 1,929 Climbing FlightAware ADS-B (KEIK)
Fri 02:52:34 PM 39.8454 -104.7573 292° West 200 230 6,900 1,200 Climbing FlightAware ADS-B
Fri 02:52:56 PM 39.8564 -104.7813 301° West 232 267 7,300 1,317 Climbing FlightAware ADS-B
Fri 02:53:15 PM 39.8697 -104.8104 301° West 245 282 7,800 1,773 Climbing FlightAware ADS-B
Fri 02:53:40 PM 39.8810 -104.8357 300° West 269 310 8,600 2,426 Climbing FlightAware ADS-B
Fri 02:54:02 PM 39.8969 -104.8715 300° West 268 308 9,700 3,200 Climbing FlightAware ADS-B
Fri 02:54:25 PM 39.9137 -104.9024 305° West 265 305 11,000 3,136 Climbing FlightAware ADS-B
Fri 02:54:46 PM 39.9307 -104.9191 323° Northwest 274 315 12,000 3,191 Climbing FlightAware ADS-B
Fri 02:55:12 PM 39.9662 -104.9442 332° Northwest 282 325 13,500 3,067 Climbing FlightAware ADS-B
Fri 02:55:31 PM 39.9825 -104.9487 348° North 291 335 14,300 2,727 Climbing FlightAware ADS-B
Fri 02:55:34 PM 39.9943 -104.9493 358° North 294 338 14,500 2,615 Climbing FlightAware ADS-B (KEIK)
Fri 02:56:10 PM 40.0441 -104.9455 North 302 348 16,000 2,462 Climbing FlightAware ADS-B
Fri 02:56:13 PM 40.0491 -104.9451 North 302 348 16,100 2,267 Climbing FlightAware ADS-B (KEIK)
Fri 02:56:55 PM 40.1075 -104.9332 North 319 367 17,700 1,735 Climbing FlightAware ADS-B
Fri 02:57:36 PM 40.1462 -104.9271 North 346 398 18,500 1,714 Climbing FlightAware ADS-B (KEIK)
Fri 02:58:19 PM 40.2359 -104.9161 North 357 411 20,100 2,195 Climbing FlightAware ADS-B (KEIK)
Fri 02:58:58 PM 40.3017 -104.9082 North 361 415 21,500 2,219 Climbing FlightAware ADS-B (KEIK)
Fri 02:59:32 PM 40.3608 -104.9010 North 368 423 22,800 1,462 Climbing FlightAware ADS-B
Fri 03:00:16 PM 40.4376 -104.8923 North 398 458 23,400 1,364 Climbing FlightAware ADS-B
Fri 03:01:00 PM 40.5198 -104.8822 North 409 471 24,800 2,022 Climbing FlightAware ADS-B
Fri 03:01:45 PM 40.6010 -104.8724 North 413 475 26,400 2,093 Climbing FlightAware ADS-B
Fri 03:02:26 PM 40.6876 -104.8621 North 413 475 27,800 1,807 Climbing FlightAware ADS-B (KEIK)
Fri 03:03:08 PM 40.7538 -104.8538 North 407 468 28,900 1,574 Climbing FlightAware ADS-B (KEIK)
Fri 03:03:27 PM 40.8008 -104.8601 354° North 397 457 29,400 1,355 Climbing FlightAware ADS-B (KEIK)
Fri 03:04:10 PM 40.8724 -104.8935 341° North 401 461 30,300 1,129 Climbing FlightAware ADS-B (KEIK)
Fri 03:04:52 PM 40.9499 -104.9313 340° North 410 472 31,000 1,037 Climbing FlightAware ADS-B (KEIK)
Fri 03:05:31 PM 41.0112 -104.9613 340° North 417 480 31,700 1,091 Climbing FlightAware ADS-B (KEIK)
Fri 03:06:09 PM 41.0653 -104.9880 340° North 421 484 32,400 1,000 Climbing FlightAware ADS-B
Fri 03:06:55 PM 41.1720 -105.0407 340° North 428 493 33,100 1,034 Climbing FlightAware ADS-B
Fri 03:07:36 PM 41.2156 -105.0623 340° North 428 493 33,900 987 Climbing FlightAware ADS-B
Fri 03:08:14 PM 41.3173 -105.1128 340° North 434 499 34,400 963 Climbing FlightAware ADS-B (KEIK)
Fri 03:08:57 PM 41.3998 -105.1538 340° North 434 499 35,200 723 Climbing FlightAware ADS-B (KEIK)
Fri 03:09:37 PM 41.4504 -105.1790 340° North 442 509 35,400 512 Climbing FlightAware ADS-B (KEIK)
Fri 03:10:19 PM 41.5482 -105.2289 339° North 444 511 35,900 835 Climbing FlightAware ADS-B (KEIK)
Fri 03:10:56 PM 41.6077 -105.2678 334° Northwest 441 507 36,500 878 Climbing FlightAware ADS-B (KEIK)
Fri 03:11:41 PM 41.7028 -105.3379 331° Northwest 441 507 37,100 607 Climbing FlightAware ADS-B (KEIK)
Fri 03:12:25 PM 41.7794 -105.3948 331° Northwest 448 516 37,400 635 Climbing FlightAware ADS-B (KEIK)
Fri 03:13:06 PM 41.8306 -105.4326 331° Northwest 448 516 38,000 439 Climbing FlightAware ADS-B (KEIK)
Fri 03:13:47 PM 41.9316 -105.5078 331° Northwest 444 511 38,000  Level FlightAware ADS-B (KEIK)
Fri 03:14:23 PM 41.9960 -105.5561 331° Northwest 443 510 38,000  Level FlightAware ADS-B (KEIK)
Fri 03:15:06 PM 42.0641 -105.6071 331° Northwest 446 513 38,000  Level FlightAware ADS-B (KEIK)
Fri 03:15:47 PM 42.1467 -105.6690 331° Northwest 447 514 38,000  Level FlightAware ADS-B (KEIK)
Fri 03:16:29 PM 42.2169 -105.7219 331° Northwest 445 512 38,000  Level FlightAware ADS-B (KEIK)
Fri 03:17:28 PM 42.3289 -105.8065 331° Northwest 444 511 38,000  Level FlightAware ADS-B (KEIK)
Fri 03:18:10 PM 42.4016 -105.8615 331° Northwest 445 512 38,000  Level FlightAware ADS-B (KEIK)
Fri 03:18:53 PM 42.4726 -105.9152 331° Northwest 443 510 38,000  Level FlightAware ADS-B (KEIK)
Fri 03:19:31 PM 42.5480 -105.9728 331° Northwest 437 503 38,000  Level FlightAware ADS-B (KEIK)
Fri 03:20:16 PM 42.6257 -106.0324 331° Northwest 438 504 38,000  Level FlightAware ADS-B (KEIK)
Fri 03:20:54 PM 42.6763 -106.0711 331° Northwest 440 506 38,000  Level FlightAware ADS-B (KEIK)
Fri 03:21:58 PM 42.7874 -106.1564 331° Northwest 439 505 38,000  Level FlightAware ADS-B (KEIK)
Fri 03:22:48 PM 42.8808 -106.2314 331° Northwest 436 502 38,000  Level Salt Lake Center
Fri 03:23:26 PM 42.9500 -106.2833 331° Northwest 440 506 38,000  Level Denver Center
Fri 03:24:27 PM 43.0533 -106.3631 331° Northwest 445 512 38,000  Level Denver Center
Fri 03:25:29 PM 43.1728 -106.4553 331° Northwest 442 509 38,000  Level Denver Center
Fri 03:26:31 PM 43.2753 -106.5353 330° Northwest 442 509 38,000  Level Denver Center
Fri 03:27:33 PM 43.3950 -106.6303 330° Northwest 444 511 38,000  Level Denver Center
Fri 03:28:35 PM 43.4975 -106.7103 330° Northwest 442 509 38,000  Level Denver Center
Fri 03:29:36 PM 43.6178 -106.8061 330° Northwest 446 513 38,000  Level Denver Center
Fri 03:30:38 PM 43.7264 -106.8928 330° Northwest 442 509 38,000  Level Denver Center
Fri 03:31:40 PM 43.8319 -106.9789 330° Northwest 441 507 38,000  Level Denver Center
Fri 03:32:54 PM 43.9411 -107.0647 330° Northwest 450 518 38,000  Level Denver Center
Fri 03:33:56 PM 44.0717 -107.1700 330° Northwest 453 521 38,000  Level Denver Center
Fri 03:34:58 PM 44.1797 -107.2564 330° Northwest 450 518 38,000  Level Denver Center
Fri 03:36:00 PM 44.2869 -107.3458 329° Northwest 451 519 38,000  Level Denver Center
Fri 03:37:13 PM 44.4367 -107.4692 330° Northwest 447 514 38,000  Level Salt Lake Center
Fri 03:38:15 PM 44.5422 -107.5556 330° Northwest 442 509 38,000  Level Salt Lake Center
Fri 03:39:17 PM 44.6489 -107.6425 330° Northwest 444 511 38,000  Level Salt Lake Center
Fri 03:40:18 PM 44.7547 -107.7297 330° Northwest 445 512 38,000  Level Salt Lake Center
Fri 03:41:21 PM 44.8567 -107.8161 329° Northwest 443 510 38,000  Level Salt Lake Center
Fri 03:42:22 PM 44.9803 -107.9186 330° Northwest 442 509 38,000  Level Salt Lake Center
Fri 03:43:24 PM 45.0875 -108.0083 329° Northwest 448 516 38,000  Level Salt Lake Center
Fri 03:44:25 PM 45.1942 -108.0989 329° Northwest 448 516 38,000  Level Salt Lake Center
Fri 03:45:27 PM 45.2992 -108.1878 329° Northwest 442 509 38,000  Level Salt Lake Center
Fri 03:46:29 PM 45.4044 -108.2772 329° Northwest 442 509 38,000  Level Salt Lake Center
Fri 03:47:31 PM 45.5100 -108.3675 329° Northwest 443 510 38,000  Level Salt Lake Center
Fri 03:48:32 PM 45.6369 -108.4761 329° Northwest 443 510 38,000  Level Salt Lake Center
Fri 03:49:34 PM 45.7428 -108.5664 329° Northwest 445 512 38,000  Level Salt Lake Center
Fri 03:50:36 PM 45.8394 -108.6694 323° Northwest 439 505 38,000  Level Salt Lake Center
Fri 03:51:37 PM 45.9169 -108.7997 311° West 435 501 38,000  Level Salt Lake Center
Fri 03:52:39 PM 45.9972 -108.9303 312° West 437 503 38,000  Level Salt Lake Center
Fri 03:53:41 PM 46.0767 -109.0606 311° West 435 501 38,000  Level Salt Lake Center
Fri 03:54:42 PM 46.1569 -109.1919 311° West 437 503 38,000  Level Salt Lake Center
Fri 03:55:44 PM 46.2536 -109.3506 311° West 440 506 38,000  Level Salt Lake Center
Fri 03:56:46 PM 46.3336 -109.4828 311° West 439 505 38,000  Level Salt Lake Center
Fri 03:57:48 PM 46.4131 -109.6153 311° West 438 504 38,000  Level Salt Lake Center
Fri 03:58:49 PM 46.4897 -109.7517 309° West 438 504 38,000  Level Salt Lake Center
Fri 03:59:51 PM 46.5697 -109.8850 311° West 438 504 38,000  Level Salt Lake Center
Fri 04:00:53 PM 46.6483 -110.0192 311° West 438 504 38,000 -49 Level Salt Lake Center
Fri 04:01:54 PM 46.7286 -110.1508 312° West 442 509 37,900 -49 Descending Salt Lake Center
Fri 04:02:56 PM 46.8244 -110.3178 310° West 447 514 37,900 48 Level Salt Lake Center
Fri 04:03:58 PM 46.9044 -110.4558 310° West 446 513 38,000 49 Climbing Salt Lake Center
Fri 04:04:59 PM 46.9844 -110.5939 310° West 445 512 38,000  Level Salt Lake Center
Fri 04:06:01 PM 47.0650 -110.7322 311° West 448 516 38,000  Level Salt Lake Center
Fri 04:07:03 PM 47.1439 -110.8717 310° West 445 512 38,000 -49 Level Salt Lake Center
Fri 04:08:04 PM 47.2239 -111.0108 310° West 446 513 37,900 -49 Descending Salt Lake Center
Fri 04:09:06 PM 47.3031 -111.1511 310° West 444 511 37,900 49 Level Salt Lake Center
Fri 04:10:07 PM 47.3831 -111.2928 310° West 447 514 38,000 49 Climbing Salt Lake Center
Fri 04:11:09 PM 47.4631 -111.4375 309° West 447 514 38,000  Level Salt Lake Center
Fri 04:12:11 PM 47.5367 -111.5892 306° West 447 514 38,000 -49 Level Salt Lake Center
Fri 04:13:12 PM 47.6236 -111.7703 306° West 446 513 37,900  Descending Salt Lake Center
Fri 04:14:14 PM 47.6958 -111.9206 306° West 446 513 38,000  Climbing Salt Lake Center
Fri 04:15:16 PM 47.7664 -112.0703 305° West 444 511 37,900  Descending Salt Lake Center
Fri 04:16:17 PM 47.8383 -112.2200 306° West 445 512 38,000 49 Climbing Salt Lake Center
Fri 04:17:19 PM 47.9103 -112.3706 306° West 447 514 38,000 -49 Level Salt Lake Center
Fri 04:18:20 PM 47.9817 -112.5214 305° West 446 513 37,900 -49 Descending Salt Lake Center
Fri 04:19:22 PM 48.0614 -112.6917 305° West 444 511 37,900  Level Salt Lake Center
Fri 04:20:23 PM 48.1311 -112.8417 305° West 442 509 37,900 49 Level Salt Lake Center
Fri 04:21:25 PM 48.2006 -112.9919 305° West 442 509 38,000  Climbing Salt Lake Center
Fri 04:22:27 PM 48.2711 -113.1439 305° West 445 512 37,900  Descending Salt Lake Center
Fri 04:23:28 PM 48.3408 -113.2947 305° West 444 511 38,000  Climbing Salt Lake Center
Fri 04:24:30 PM 48.4106 -113.4472 305° West 445 512 37,900 -49 Descending Salt Lake Center
Fri 04:25:31 PM 48.4931 -113.6297 304° West 445 512 37,900  Level Salt Lake Center
Fri 04:26:33 PM 48.5619 -113.7828 304° West 444 511 37,900  Level Salt Lake Center
Fri 04:27:34 PM 48.6303 -113.9350 304° West 442 509 37,900 49 Level Salt Lake Center
Fri 04:28:36 PM 48.6986 -114.0883 304° West 442 509 38,000 49 Climbing Salt Lake Center
Fri 04:29:37 PM 48.7672 -114.2408 304° West 442 509 38,000 -49 Level Salt Lake Center
Fri 04:30:39 PM 48.8344 -114.3964 303° West 443 510 37,900  Descending Salt Lake Center
Fri 04:31:41 PM 48.8833 -114.6000 290° West 430 495 38,000 49 Climbing Edmonton Center
Fri 04:32:41 PM 48.9500 -114.7500 304° West 440 506 38,000  Level Edmonton Center
Fri 04:33:41 PM 49.0167 -114.9167 301° West 440 506 38,000  Level Edmonton Center
Fri 04:34:41 PM 49.1000 -115.0833 307° West 450 518 38,000  Level Edmonton Center
Fri 04:35:41 PM 49.1667 -115.2500 302° West 450 518 38,000  Level Edmonton Center
Fri 04:36:21 PM 49.2167 -115.2833 336° Northwest 460 529 38,000  Level Vancouver Center
Fri 04:37:21 PM 49.2833 -115.4500 302° West 450 518 38,000  Level Vancouver Center
Fri 04:38:21 PM 49.3500 -115.6167 302° West 440 506 38,000  Level Vancouver Center
Fri 04:39:21 PM 49.4167 -115.7500 308° West 450 518 38,000  Level Vancouver Center
Fri 04:40:21 PM 49.4833 -115.9333 299° West 450 518 38,000  Level Vancouver Center
Fri 04:41:21 PM 49.5500 -116.1000 302° West 450 518 38,000  Level Vancouver Center
Fri 04:42:21 PM 49.6167 -116.2667 302° West 450 518 38,000  Level Vancouver Center
Fri 04:43:21 PM 49.6833 -116.4167 305° West 450 518 38,000  Level Vancouver Center
Fri 04:44:21 PM 49.7667 -116.5833 308° West 450 518 38,000  Level Vancouver Center
Fri 04:45:21 PM 49.8167 -116.7500 295° West 450 518 38,000  Level Vancouver Center
Fri 04:46:21 PM 49.8833 -116.9333 299° West 450 518 38,000  Level Vancouver Center
Fri 04:47:21 PM 49.9667 -117.0667 314° West 450 518 38,000  Level Vancouver Center
Fri 04:48:21 PM 50.0167 -117.2167 297° West 450 518 38,000  Level Vancouver Center
Fri 04:49:21 PM 50.0833 -117.4000 300° West 440 506 38,000  Level Vancouver Center
Fri 04:50:21 PM 50.1333 -117.5667 295° West 450 518 38,000  Level Vancouver Center
Fri 04:51:21 PM 50.2167 -117.7333 308° West 450 518 38,000  Level Vancouver Center
Fri 04:52:21 PM 50.2667 -117.8833 298° West 450 518 38,000  Level Vancouver Center
Fri 04:53:21 PM 50.3500 -118.0667 306° West 450 518 38,000  Level Vancouver Center
Fri 04:54:21 PM 50.4000 -118.2333 295° West 440 506 38,000  Level Vancouver Center
Fri 04:55:21 PM 50.4667 -118.4000 302° West 440 506 38,000  Level Vancouver Center
Fri 04:56:21 PM 50.5333 -118.5667 302° West 440 506 38,000  Level Vancouver Center
Fri 04:57:21 PM 50.6000 -118.7167 305° West 440 506 38,000  Level Vancouver Center
Fri 04:58:21 PM 50.6500 -118.9000 293° West 450 518 38,000  Level Vancouver Center
Fri 04:59:21 PM 50.7333 -119.0500 311° West 450 518 38,000  Level Vancouver Center
Fri 05:00:21 PM 50.8167 -119.2000 311° West 450 518 38,000  Level Vancouver Center
Fri 05:01:21 PM 50.8833 -119.3500 305° West 450 518 38,000  Level Vancouver Center
Fri 05:02:21 PM 50.9667 -119.5333 306° West 450 518 38,000  Level Vancouver Center
Fri 05:03:21 PM 51.0500 -119.6833 312° West 460 529 38,000  Level Vancouver Center
Fri 05:04:21 PM 51.1167 -119.8333 305° West 450 518 38,000  Level Vancouver Center
Fri 05:05:21 PM 51.2000 -119.9833 312° West 450 518 38,000  Level Vancouver Center
Fri 05:06:21 PM 51.2833 -120.1667 306° West 460 529 38,000  Level Vancouver Center
Fri 05:07:21 PM 51.3500 -120.3167 305° West 460 529 38,000  Level Vancouver Center
Fri 05:08:21 PM 51.4500 -120.4833 314° West 460 529 38,000  Level Vancouver Center
Fri 05:09:21 PM 51.5167 -120.6333 306° West 460 529 38,000  Level Vancouver Center
Fri 05:10:21 PM 51.5833 -120.7833 306° West 460 529 38,000  Level Vancouver Center
Fri 05:11:21 PM 51.6667 -120.9667 306° West 460 529 38,000  Level Vancouver Center
Fri 05:12:21 PM 51.7500 -121.1333 309° West 460 529 38,000  Level Vancouver Center
Fri 05:13:21 PM 51.8333 -121.3167 306° West 460 529 38,000  Level Vancouver Center
Fri 05:14:21 PM 51.9000 -121.4667 306° West 460 529 38,000  Level Vancouver Center
Fri 05:15:21 PM 51.9833 -121.6333 309° West 460 529 38,000  Level Vancouver Center
Fri 05:16:21 PM 52.0667 -121.7833 312° West 470 541 38,000  Level Vancouver Center
Fri 05:17:21 PM 52.1500 -121.9667 307° West 460 529 38,000  Level Vancouver Center
Fri 05:18:21 PM 52.2167 -122.1333 303° West 460 529 38,000  Level Vancouver Center
Fri 05:19:21 PM 52.3000 -122.3000 309° West 460 529 38,000  Level Vancouver Center
Fri 05:20:21 PM 52.3833 -122.4500 312° West 460 529 38,000  Level Vancouver Center
Fri 05:21:21 PM 52.4667 -122.6167 309° West 460 529 38,000  Level Vancouver Center
Fri 05:22:21 PM 52.5500 -122.7833 309° West 470 541 38,000  Level Vancouver Center
Fri 05:23:21 PM 52.6333 -122.9500 310° West 470 541 38,000  Level Vancouver Center
Fri 05:24:21 PM 52.7333 -123.1000 318° Northwest 470 541 38,000  Level Vancouver Center
Fri 05:25:21 PM 52.8167 -123.2667 310° West 470 541 38,000  Level Vancouver Center
Fri 05:26:21 PM 52.9000 -123.4333 310° West 470 541 38,000  Level Vancouver Center
Fri 05:27:21 PM 52.9833 -123.6000 310° West 470 541 38,000  Level Vancouver Center
Fri 05:28:21 PM 53.0667 -123.7667 310° West 470 541 38,000  Level Vancouver Center
Fri 05:29:21 PM 53.1500 -123.9333 310° West 460 529 38,000  Level Vancouver Center
Fri 05:30:21 PM 53.2333 -124.1000 310° West 460 529 38,000  Level Vancouver Center
Fri 05:31:21 PM 53.3167 -124.2500 313° West 460 529 38,000  Level Vancouver Center
Fri 05:32:21 PM 53.4000 -124.4333 307° West 460 529 38,000  Level Vancouver Center
Fri 05:33:21 PM 53.4833 -124.5833 313° West 460 529 38,000  Level Vancouver Center
Fri 05:34:21 PM 53.5500 -124.7833 299° West 470 541 38,000  Level Vancouver Center
Fri 05:35:21 PM 53.6333 -124.9167 317° Northwest 470 541 38,000  Level Vancouver Center
Fri 05:36:21 PM 53.7000 -125.1000 302° West 470 541 38,000  Level Vancouver Center
Fri 05:37:21 PM 53.8000 -125.2667 315° West 470 541 38,000  Level Vancouver Center
Fri 05:38:21 PM 53.8833 -125.4333 310° West 470 541 38,000  Level Vancouver Center
Fri 05:39:21 PM 53.9500 -125.6167 302° West 470 541 38,000  Level Vancouver Center
Fri 05:40:21 PM 54.0500 -125.7833 316° Northwest 470 541 38,000  Level Vancouver Center
Fri 05:41:21 PM 54.1167 -125.9667 302° West 470 541 38,000  Level Vancouver Center
Fri 05:42:21 PM 54.2000 -126.1333 311° West 470 541 38,000  Level Vancouver Center
Fri 05:43:21 PM 54.2833 -126.3167 308° West 470 541 38,000  Level Vancouver Center
Fri 05:44:21 PM 54.3667 -126.4833 311° West 470 541 38,000  Level Vancouver Center
Fri 05:45:21 PM 54.4500 -126.6667 308° West 470 541 38,000  Level Vancouver Center
Fri 05:46:21 PM 54.5333 -126.8167 314° West 470 541 38,000  Level Vancouver Center
Fri 05:47:21 PM 54.6000 -127.0167 300° West 470 541 38,000  Level Vancouver Center
Fri 05:48:21 PM 54.6833 -127.1667 314° West 470 541 38,000  Level Vancouver Center
Fri 05:49:21 PM 54.7833 -127.3500 313° West 470 541 38,000  Level Vancouver Center
Fri 05:50:21 PM 54.8500 -127.5333 302° West 490 564 38,000  Level Vancouver Center
Fri 05:51:21 PM 54.9333 -127.7167 308° West 480 552 38,000  Level Vancouver Center
Fri 05:52:21 PM 55.0167 -127.9000 308° West 480 552 38,000  Level Vancouver Center
Fri 05:53:21 PM 55.0833 -128.0833 302° West 470 541 38,000  Level Vancouver Center
Fri 05:54:21 PM 55.1667 -128.2667 309° West 460 529 38,000  Level Vancouver Center
Fri 05:55:21 PM 55.2500 -128.4167 314° West 470 541 38,000  Level Vancouver Center
Fri 05:56:21 PM 55.3333 -128.6333 304° West 460 529 38,000  Level Vancouver Center
Fri 05:57:21 PM 55.4167 -128.8000 311° West 460 529 38,000  Level Vancouver Center
Fri 05:58:21 PM 55.4833 -128.9833 303° West 470 541 38,000  Level Vancouver Center
Fri 05:59:21 PM 55.5667 -129.1667 309° West 470 541 38,000  Level Vancouver Center
Fri 06:00:21 PM 55.6500 -129.3500 309° West 470 541 38,000  Level Vancouver Center
Fri 06:01:21 PM 55.7167 -129.5167 305° West 470 541 38,000  Level Vancouver Center
Fri 06:02:21 PM 55.8000 -129.7000 309° West 460 529 38,000  Level Vancouver Center
Fri 06:03:21 PM 55.8833 -129.9000 307° West 450 518 38,000  Level Vancouver Center
Fri 06:04:21 PM 55.9167 -130.1000 287° West 480 552 38,000  Level Vancouver Center
Fri 06:05:21 PM 55.9667 -130.3167 292° West 460 529 38,000  Level Vancouver Center
Fri 06:06:21 PM 55.9833 -130.5333 278° West 470 541 38,000  Level Vancouver Center
Fri 06:07:21 PM 56.0167 -130.7833 284° West 460 529 38,000  Level Vancouver Center
Fri 06:08:21 PM 56.0500 -131.0000 285° West 470 541 38,000  Level Vancouver Center
Fri 06:09:21 PM 56.0833 -131.2333 284° West 470 541 38,000  Level Vancouver Center
Fri 06:10:21 PM 56.1167 -131.4667 284° West 460 529 38,000  Level Vancouver Center
Fri 06:11:21 PM 56.1333 -131.6667 279° West 480 552 38,000  Level Vancouver Center
Fri 06:12:21 PM 56.1667 -131.8833 286° West 470 541 38,000 250 Level Vancouver Center
Fri 06:13:21 PM 56.2167 -132.1333 290° West 470 541 38,500 600 Climbing Vancouver Center
Fri 06:14:21 PM 56.2500 -132.3833 284° West 470 541 39,200 750 Climbing Vancouver Center
Fri 06:15:21 PM 56.2667 -132.5667 279° West 470 541 40,000 400 Climbing Vancouver Center
Fri 06:16:21 PM 56.3000 -132.8167 284° West 470 541 40,000  Level Vancouver Center
Fri 06:17:21 PM 56.3333 -133.0333 286° West 470 541 40,000  Level Vancouver Center
Fri 06:18:21 PM 56.3500 -133.2833 277° West 460 529 40,000  Level Vancouver Center
Fri 06:19:21 PM 56.3833 -133.4833 287° West 470 541 40,000  Level Vancouver Center
Fri 06:20:21 PM 56.4000 -133.7167 277° West 460 529 40,000  Level Vancouver Center
Fri 06:21:21 PM 56.4333 -133.9500 285° West 450 518 40,000  Level Vancouver Center
Fri 06:22:21 PM 56.4667 -134.2000 284° West 460 529 40,000  Level Vancouver Center
Fri 06:23:21 PM 56.5000 -134.4167 286° West 460 529 40,000  Level Vancouver Center
Fri 06:24:21 PM 56.5000 -134.6333 270° West 450 518 40,000  Level Vancouver Center
Fri 06:25:21 PM 56.5333 -134.8833 284° West 460 529 40,000  Level Vancouver Center
Fri 06:26:21 PM 56.5667 -135.1167 285° West 450 518 40,000  Level Vancouver Center
Fri 06:27:21 PM 56.5833 -135.3500 277° West 460 529 40,000  Level Vancouver Center
Fri 06:27:51 PM 56.6000 -135.3833 312° West 470 541 40,000  Level Anchorage Center
Fri 06:28:51 PM 56.6167 -135.5833 279° West 470 541 40,000  Level Anchorage Center
Fri 06:29:52 PM 56.6500 -135.8167 285° West 470 541 40,000  Level Anchorage Center
Fri 06:30:52 PM 56.6667 -136.0500 278° West 470 541 40,000  Level Anchorage Center
Fri 06:31:53 PM 56.6833 -136.2833 278° West 470 541 40,000  Level Anchorage Center
Fri 06:32:53 PM 56.7167 -136.5167 285° West 470 541 40,000  Level Anchorage Center
Fri 06:33:53 PM 56.7333 -136.7667 277° West 470 541 40,000  Level Anchorage Center
Fri 06:34:54 PM 56.7500 -137.0000 278° West 470 541 40,000  Level Anchorage Center
Fri 06:35:54 PM 56.7833 -137.2333 285° West 480 552 40,000  Level Anchorage Center
Fri 06:36:54 PM 56.8000 -137.4833 277° West 480 552 40,000  Level Anchorage Center
Fri 06:37:55 PM 56.8167 -137.7167 278° West 470 541 40,000  Level Anchorage Center
Fri 06:38:55 PM 56.8333 -137.9500 278° West 480 552 40,000  Level Anchorage Center
Fri 06:39:55 PM 56.8667 -138.2000 284° West 470 541 40,000  Level Anchorage Center
Fri 06:40:56 PM 56.8833 -138.4333 278° West 480 552 40,000  Level Anchorage Center
Fri 06:41:56 PM 56.9000 -138.6667 278° West 470 541 40,000  Level Anchorage Center
Fri 06:42:56 PM 56.9167 -138.9167 277° West 470 541 40,000  Level Anchorage Center
Fri 06:43:57 PM 56.9333 -139.1500 278° West 470 541 40,000  Level Anchorage Center
Fri 06:44:57 PM 56.9500 -139.4500 276° West 480 552 40,000  Level Anchorage Center
Fri 06:45:57 PM 56.9667 -139.6833 278° West 470 541 40,000  Level Anchorage Center
Fri 06:46:58 PM 56.9833 -139.9167 278° West 470 541 40,000  Level Anchorage Center
Fri 06:47:58 PM 57.0167 -140.1500 285° West 470 541 40,000  Level Anchorage Center
Fri 06:48:58 PM 57.0833 -140.3333 304° West 470 541 40,000  Level Anchorage Center
Fri 06:49:58 PM 57.1333 -140.5667 292° West 480 552 40,000  Level Anchorage Center
Fri 06:50:59 PM 57.1833 -140.7833 293° West 470 541 40,000  Level Anchorage Center
Fri 06:51:59 PM 57.2500 -141.0167 298° West 480 552 40,000  Level Anchorage Center
Fri 06:52:59 PM 57.3000 -141.2333 293° West 470 541 40,000  Level Anchorage Center
Fri 06:54:00 PM 57.3500 -141.4500 293° West 470 541 40,000  Level Anchorage Center
Fri 06:55:00 PM 57.4000 -141.6833 292° West 470 541 40,000  Level Anchorage Center
Fri 06:56:01 PM 57.4500 -141.9000 293° West 470 541 40,000  Level Anchorage Center
Fri 06:57:01 PM 57.5000 -142.1333 292° West 470 541 40,000  Level Anchorage Center
Fri 06:58:01 PM 57.5500 -142.3500 293° West 470 541 40,000  Level Anchorage Center
Fri 06:59:02 PM 57.6167 -142.5833 298° West 470 541 40,000  Level Anchorage Center
Fri 07:00:02 PM 57.6667 -142.8167 292° West 470 541 40,000  Level Anchorage Center
Fri 07:01:02 PM 57.7167 -143.0500 292° West 470 541 40,000  Level Anchorage Center
Fri 07:02:03 PM 57.7667 -143.2833 292° West 480 552 40,000  Level Anchorage Center
Fri 07:03:03 PM 57.8167 -143.5167 292° West 480 552 40,000  Level Anchorage Center
Fri 07:04:03 PM 57.8667 -143.7500 292° West 480 552 40,000  Level Anchorage Center
Fri 07:05:04 PM 57.9167 -143.9833 292° West 470 541 40,000  Level Anchorage Center
Fri 07:06:04 PM 57.9667 -144.2167 292° West 480 552 40,000  Level Anchorage Center
Fri 07:07:04 PM 58.0167 -144.4500 292° West 480 552 40,000  Level Anchorage Center
Fri 07:08:05 PM 58.0500 -144.7000 284° West 480 552 40,000  Level Anchorage Center
Fri 07:09:05 PM 58.1000 -144.9333 292° West 480 552 40,000  Level Anchorage Center
Fri 07:10:05 PM 58.1500 -145.1667 292° West 480 552 40,000  Level Anchorage Center
Fri 07:11:05 PM 58.2000 -145.4167 291° West 480 552 40,000  Level Anchorage Center
Fri 07:12:06 PM 58.2500 -145.6667 291° West 490 564 40,000  Level Anchorage Center
Fri 07:13:06 PM 58.3000 -145.9000 292° West 490 564 40,000  Level Anchorage Center
Fri 07:14:06 PM 58.3333 -146.1500 284° West 480 552 40,000  Level Anchorage Center
Fri 07:19:16 PM 58.5879 -147.4711 284° West 498 573 40,000  Level FlightAware ADS-B
Fri 07:19:50 PM 58.6129 -147.6150 289° West 499 574 40,000  Level FlightAware ADS-B
Fri 07:20:48 PM 58.6572 -147.8727 288° West 500 575 40,000  Level FlightAware ADS-B
Fri 07:21:48 PM 58.6979 -148.1120 288° West 499 574 40,000  Level FlightAware ADS-B
Fri 07:22:19 PM 58.7206 -148.2469 288° West 500 575 40,000  Level FlightAware ADS-B
Fri 07:23:04 PM 58.7373 -148.3465 288° West 501 577 40,000  Level FlightAware ADS-B
Fri 07:23:35 PM 58.7740 -148.5691 288° West 500 575 40,000  Level FlightAware ADS-B
Fri 07:24:16 PM 58.7899 -148.6656 288° West 499 574 40,000  Level FlightAware ADS-B
Fri 07:24:46 PM 58.8227 -148.8671 288° West 500 575 40,000  Level FlightAware ADS-B
Fri 07:25:35 PM 58.8452 -149.0072 287° West 501 577 40,000  Level FlightAware ADS-B
Fri 07:26:05 PM 58.8775 -149.2094 287° West 502 578 40,000  Level FlightAware ADS-B
Fri 07:26:42 PM 58.9016 -149.3622 287° West 501 577 40,000  Level FlightAware ADS-B
Fri 07:27:20 PM 58.9235 -149.5023 287° West 501 577 40,000  Level FlightAware ADS-B
Fri 07:28:02 PM 58.9564 -149.7143 287° West 500 575 40,000  Level FlightAware ADS-B
Fri 07:28:42 PM 58.9823 -149.8831 287° West 501 577 40,000  Level FlightAware ADS-B
Fri 07:29:17 PM 58.9925 -149.9584 285° West 503 579 40,000  Level FlightAware ADS-B
Fri 07:30:03 PM 59.0086 -150.2294 277° West 505 581 40,000  Level FlightAware ADS-B
Fri 07:30:35 PM 59.0143 -150.3847 274° West 507 583 40,000  Level FlightAware ADS-B
Fri 07:31:22 PM 59.0219 -150.6004 274° West 508 585 40,000  Level FlightAware ADS-B
Fri 07:32:03 PM 59.0280 -150.7859 274° West 506 582 40,000  Level FlightAware ADS-B
Fri 07:32:42 PM 59.0336 -150.9617 274° West 505 581 40,000  Level FlightAware ADS-B
Fri 07:33:20 PM 59.0388 -151.1332 273° West 506 582 40,000  Level FlightAware ADS-B
Fri 07:34:04 PM 59.0446 -151.3322 273° West 507 583 40,000  Level FlightAware ADS-B
Fri 07:34:35 PM 59.0483 -151.4663 273° West 508 585 40,000  Level FlightAware ADS-B
Fri 07:35:18 PM 59.0535 -151.6584 273° West 508 585 40,000  Level FlightAware ADS-B
Fri 07:35:50 PM 59.0573 -151.8108 273° West 509 586 40,000  Level FlightAware ADS-B
Fri 07:36:34 PM 59.0620 -152.0078 273° West 513 590 40,000  Level FlightAware ADS-B
Fri 07:37:04 PM 59.0650 -152.1356 273° West 516 594 40,000  Level FlightAware ADS-B
Fri 07:37:34 PM 59.0679 -152.2790 272° West 517 595 40,000  Level FlightAware ADS-B
Fri 07:38:04 PM 59.0706 -152.4102 272° West 516 594 40,000  Level FlightAware ADS-B
Fri 07:38:49 PM 59.0747 -152.6134 272° West 515 593 40,000  Level FlightAware ADS-B
Fri 07:39:15 PM 59.0667 -152.7333 271° West 510 587 40,000  Level Anchorage Center
Fri 07:39:20 PM 59.0774 -152.7703 272° West 516 594 40,000  Level FlightAware ADS-B
Fri 07:40:05 PM 59.0809 -152.9833 272° West 514 592 40,000  Level FlightAware ADS-B
Fri 07:40:16 PM 59.0667 -153.0000 270° West 510 587 40,000  Level Anchorage Center
Fri 07:40:48 PM 59.0839 -153.1879 272° West 516 594 40,000  Level FlightAware ADS-B
Fri 07:41:16 PM 59.0667 -153.2333 270° West 500 575 40,000  Level Anchorage Center
Fri 07:41:48 PM 59.0869 -153.4235 272° West 515 593 40,000  Level FlightAware ADS-B
Fri 07:42:16 PM 59.0833 -153.5167 277° West 510 587 40,000  Level Anchorage Center
Fri 07:42:28 PM 59.0895 -153.6483 271° West 519 597 40,000  Level FlightAware ADS-B
Fri 07:43:16 PM 59.0833 -153.8000 270° West 510 587 40,000  Level Anchorage Center
Fri 07:44:17 PM 59.0833 -154.0667 270° West 510 587 40,000  Level Anchorage Center
Fri 07:45:00 PM 59.0946 -154.2870 271° West  Level FlightAware Approximate
Fri 07:45:17 PM 59.0833 -154.3500 270° West 510 587 40,000  Level Anchorage Center
Fri 07:46:17 PM 59.0833 -154.6167 270° West 500 575 40,000  Level Anchorage Center
Fri 07:52:12 PM 59.0895 -156.3525 270° West 516 594 40,000  Level FlightAware ADS-B
Fri 07:53:08 PM 59.0833 -156.5667 270° West 510 587 40,000  Level Anchorage Center
Fri 07:54:08 PM 59.0833 -156.8500 270° West 520 598 40,000  Level Anchorage Center
Fri 07:55:08 PM 59.0667 -157.1167 263° West 520 598 40,000  Level Anchorage Center
Fri 07:56:08 PM 59.0667 -157.4000 270° West 510 587 40,000  Level Anchorage Center
Fri 07:57:08 PM 59.0667 -157.6833 270° West 510 587 40,000  Level Anchorage Center
Fri 07:58:08 PM 59.0500 -157.9500 263° West 510 587 40,000  Level Anchorage Center
Fri 07:59:08 PM 59.0500 -158.2333 270° West 510 587 40,000  Level Anchorage Center
Fri 08:00:08 PM 59.0333 -158.5167 264° West 510 587 40,000  Level Anchorage Center
Fri 08:01:08 PM 59.0333 -158.7833 270° West 510 587 40,000  Level Anchorage Center
Fri 08:02:08 PM 59.0167 -159.0667 264° West 510 587 40,000  Level Anchorage Center
Fri 08:03:08 PM 59.0167 -159.3500 270° West 520 598 40,000  Level Anchorage Center
Fri 08:04:08 PM 59.0000 -159.6333 264° West 520 598 40,000  Level Anchorage Center
Fri 08:05:08 PM 59.0000 -159.9333 270° West 530 610 40,000  Level Anchorage Center
Fri 08:06:09 PM 58.9833 -160.2000 263° West 510 587 40,000  Level Anchorage Center
Fri 08:07:09 PM 58.9667 -160.4833 264° West 510 587 40,000  Level Anchorage Center
Fri 08:08:09 PM 58.9500 -160.7500 263° West 520 598 40,000  Level Anchorage Center
Fri 08:09:09 PM 58.9333 -161.0333 264° West 520 598 40,000  Level Anchorage Center
Fri 08:10:09 PM 58.9167 -161.3167 264° West 520 598 40,000  Level Anchorage Center
Fri 08:11:09 PM 58.9000 -161.6000 264° West 530 610 40,000  Level Anchorage Center
Fri 08:12:09 PM 58.8667 -161.8833 257° West 520 598 40,000  Level Anchorage Center
Fri 08:13:09 PM 58.8500 -162.1500 263° West 520 598 40,000  Level Anchorage Center
Fri 08:14:09 PM 58.8333 -162.4333 264° West 520 598 40,000  Level Anchorage Center
Fri 08:15:09 PM 58.8167 -162.7000 263° West 510 587 40,000  Level Anchorage Center
Fri 08:16:09 PM 58.8000 -162.9833 264° West 520 598 40,000  Level Anchorage Center
Fri 08:17:09 PM 58.7667 -163.2667 257° West 530 610 40,000  Level Anchorage Center
Fri 08:18:10 PM 58.7500 -163.5333 263° West 510 587 40,000  Level Anchorage Center
Fri 08:19:09 PM 58.7333 -163.8167 264° West 520 598 40,000  Level Anchorage Center
Fri 08:20:10 PM 58.7000 -164.1000 257° West 510 587 40,000  Level Anchorage Center
Fri 08:21:10 PM 58.6833 -164.3667 263° West 520 598 40,000  Level Anchorage Center
Fri 08:22:10 PM 58.6500 -164.6500 257° West 520 598 40,000  Level Anchorage Center
Fri 08:23:10 PM 58.6333 -164.9167 263° West 510 587 40,000  Level Anchorage Center
Fri 08:24:10 PM 58.6000 -165.1833 257° West 510 587 40,000  Level Anchorage Center
Fri 08:25:10 PM 58.5833 -165.4667 264° West 510 587 40,000  Level Anchorage Center
Fri 08:26:10 PM 58.5500 -165.7333 257° West 500 575 40,000  Level Anchorage Center
Fri 08:27:11 PM 58.5333 -165.9833 263° West 500 575 40,000  Level Anchorage Center
Fri 08:28:10 PM 58.5000 -166.2333 256° West 480 552 40,000  Level Anchorage Center
Fri 08:29:10 PM 58.4833 -166.5000 263° West 490 564 40,000  Level Anchorage Center
Fri 08:30:10 PM 58.4500 -166.7500 256° West 480 552 40,000  Level Anchorage Center
Fri 08:31:10 PM 58.4167 -166.9833 255° West 460 529 40,000  Level Anchorage Center
Fri 08:32:10 PM 58.4000 -167.2333 263° West 470 541 40,000  Level Anchorage Center
Fri 08:33:10 PM 58.3667 -167.4833 256° West 480 552 40,000  Level Anchorage Center
Fri 08:34:10 PM 58.3333 -167.7333 256° West 480 552 40,000  Level Anchorage Center
Fri 08:35:11 PM 58.3000 -167.9833 256° West 490 564 40,000  Level Anchorage Center
Fri 08:36:11 PM 58.2667 -168.2333 256° West 490 564 40,000  Level Anchorage Center
Fri 08:37:11 PM 58.2500 -168.5000 263° West 490 564 40,000  Level Anchorage Center
Fri 08:38:11 PM 58.2167 -168.7500 256° West 490 564 40,000  Level Anchorage Center
Fri 08:39:11 PM 58.1833 -169.0000 256° West 490 564 40,000  Level Anchorage Center
Fri 08:40:11 PM 58.1500 -169.2500 256° West 490 564 40,000  Level Anchorage Center
Fri 08:41:11 PM 58.1167 -169.5000 256° West 490 564 40,000  Level Anchorage Center
Fri 08:42:11 PM 58.0833 -169.7667 257° West 490 564 40,000  Level Anchorage Center
Fri 08:43:11 PM 58.0500 -170.0167 256° West 490 564 40,000  Level Anchorage Center
Fri 08:44:11 PM 58.0167 -170.2667 256° West 490 564 40,000  Level Anchorage Center
Fri 08:45:11 PM 57.9833 -170.5167 256° West 490 564 40,000  Level Anchorage Center
Fri 08:46:11 PM 57.9500 -170.7667 256° West 480 552 40,000  Level Anchorage Center
Fri 08:47:11 PM 57.9333 -171.0167 263° West 480 552 40,000  Level Anchorage Center
Fri 08:48:11 PM 57.9167 -171.2667 263° West 480 552 40,000  Level Anchorage Center
Fri 08:49:12 PM 57.9000 -171.5167 263° West 470 541 40,000  Level Anchorage Center
Fri 08:50:12 PM 57.9000 -171.7667 270° West 480 552 40,000  Level Anchorage Center
Fri 08:51:11 PM 57.8833 -172.0167 263° West 480 552 40,000  Level Anchorage Center
Fri 08:52:12 PM 57.8667 -172.2500 262° West 460 529 40,000  Level Anchorage Center
Fri 08:53:12 PM 57.8500 -172.5167 263° West 480 552 40,000  Level Anchorage Center
Fri 08:54:12 PM 57.8333 -172.7667 263° West 480 552 40,000  Level Anchorage Center
Fri 08:55:12 PM 57.8167 -173.0000 262° West 470 541 40,000  Level Anchorage Center
Fri 08:56:12 PM 57.8000 -173.2500 263° West 480 552 40,000  Level Anchorage Center
Fri 08:57:12 PM 57.8000 -173.5000 270° West 460 529 40,000  Level Anchorage Center
Fri 08:58:12 PM 57.7667 -173.7500 256° West 490 564 40,000  Level Anchorage Center
Fri 08:59:12 PM 57.7500 -174.0000 263° West 490 564 40,000  Level Anchorage Center
Fri 09:00:12 PM 57.7333 -174.2500 263° West 490 564 40,000  Level Anchorage Center
Fri 09:01:12 PM 57.7167 -174.5000 263° West 480 552 40,000  Level Anchorage Center
Fri 09:02:12 PM 57.7000 -174.7500 263° West 480 552 40,000  Level Anchorage Center
Fri 09:03:12 PM 57.6833 -175.0000 263° West 480 552 40,000  Level Anchorage Center
Fri 09:04:12 PM 57.6667 -175.2500 263° West 480 552 40,000  Level Anchorage Center
Fri 09:05:13 PM 57.6500 -175.5000 263° West 470 541 40,000  Level Anchorage Center
Fri 09:06:13 PM 57.6167 -175.7500 256° West 480 552 40,000  Level Anchorage Center
Fri 09:07:13 PM 57.6000 -176.0000 263° West 480 552 40,000  Level Anchorage Center
Fri 09:08:13 PM 57.5833 -176.2333 263° West 470 541 40,000  Level Anchorage Center
Fri 09:09:13 PM 57.5667 -176.4833 263° West 470 541 40,000  Level Anchorage Center
Fri 09:11:21 PM 57.5000 -177.0500 254° West 476 548 40,000  Level Anchorage Center
Fri 09:16:53 PM 57.3000 -178.3167 253° West 473 544 40,000  Level Anchorage Center
Fri 09:24:13 PM 57.0000 180.0000 249° West 482 555 40,000  Level Anchorage Center
Fri 09:26:28 PM 56.8833 179.4833 248° West 478 550 40,000  Level Anchorage Center
Fri 09:36:01 PM 56.3833 177.3167 246° West 482 555 40,000  Level Anchorage Center
Fri 09:42:40 PM 56.0167 175.8667 245° Southwest 480 552 40,000  Level Anchorage Center
Fri 09:43:00 PM 56.0009 175.7836 245° Southwest 482 555 40,000  Level FlightAware Transoceanic
Fri 09:43:40 PM 55.9667 175.6833 244° Southwest 460 529 40,000  Level Anchorage Center
Fri 09:44:00 PM 55.9447 175.5671 245° Southwest 482 555 40,000  Level FlightAware Transoceanic
Fri 09:44:40 PM 55.9167 175.4500 249° West 470 541 40,000  Level Anchorage Center
Fri 09:45:00 PM 55.8881 175.3512 245° Southwest 482 555 40,000  Level FlightAware Transoceanic
Fri 09:45:40 PM 55.8667 175.2667 244° Southwest 470 541 40,000  Level Anchorage Center
Fri 09:46:00 PM 55.8312 175.1359 245° Southwest 482 555 40,000  Level FlightAware Transoceanic
Fri 09:46:41 PM 55.8000 175.0500 241° Southwest 470 541 40,000  Level Anchorage Center
Fri 09:47:00 PM 55.7739 174.9213 245° Southwest 482 555 40,000  Level FlightAware Transoceanic
Fri 09:47:40 PM 55.7333 174.8000 245° Southwest 480 552 40,000  Level Anchorage Center
Fri 09:48:40 PM 55.6833 174.6167 244° Southwest 480 552 40,000  Level Anchorage Center
Fri 09:49:40 PM 55.6167 174.4000 241° Southwest 470 541 40,000  Level Anchorage Center
Fri 09:50:41 PM 55.5667 174.2167 244° Southwest 470 541 40,000  Level Anchorage Center
Fri 09:51:40 PM 55.5167 173.9833 249° West 480 552 40,000  Level Anchorage Center
Fri 09:52:41 PM 55.4500 173.8000 237° Southwest 480 552 40,000  Level Anchorage Center
Fri 09:53:41 PM 55.4000 173.5667 249° West 470 541 40,000  Level Anchorage Center
Fri 09:54:41 PM 55.3333 173.3833 237° Southwest 470 541 40,000  Level Anchorage Center
Fri 09:55:41 PM 55.2833 173.1667 248° West 470 541 40,000  Level Anchorage Center
Fri 09:56:41 PM 55.2167 172.9500 242° Southwest 470 541 40,000  Level Anchorage Center
Fri 09:57:41 PM 55.1667 172.7667 245° Southwest 470 541 40,000  Level Anchorage Center
Fri 09:58:41 PM 55.1167 172.6000 242° Southwest 460 529 40,000  Level Anchorage Center
Fri 09:59:41 PM 55.0500 172.3833 242° Southwest 450 518 40,000  Level Anchorage Center
Fri 10:00:41 PM 54.9833 172.1667 242° Southwest 470 541 40,000  Level Anchorage Center
Fri 10:01:41 PM 54.9167 171.9833 238° Southwest 470 541 40,000  Level Anchorage Center
Fri 10:02:41 PM 54.8500 171.7833 240° Southwest 470 541 40,000  Level Anchorage Center
Fri 10:03:41 PM 54.7667 171.5833 234° Southwest 470 541 40,000  Level Anchorage Center
Fri 10:04:41 PM 54.7000 171.4167 235° Southwest 470 541 40,000  Level Anchorage Center
Fri 10:05:42 PM 54.6000 171.2167 229° Southwest 470 541 40,000  Level Anchorage Center
Fri 10:06:42 PM 54.5333 171.0500 235° Southwest 490 564 40,000  Level Anchorage Center
Fri 10:07:42 PM 54.4500 170.8500 234° Southwest 480 552 40,000  Level Anchorage Center
Fri 10:08:42 PM 54.3833 170.7000 233° Southwest 450 518 40,000  Level Anchorage Center
Fri 10:09:42 PM 54.3000 170.5000 235° Southwest 460 529 40,000  Level Anchorage Center
Fri 10:10:42 PM 54.2333 170.3333 236° Southwest 480 552 40,000  Level Anchorage Center
Fri 10:11:42 PM 54.1500 170.1500 232° Southwest 470 541 40,000  Level Anchorage Center
Fri 10:12:42 PM 54.0667 169.9500 235° Southwest 480 552 40,000  Level Anchorage Center
Fri 10:13:42 PM 53.9833 169.8000 227° Southwest 470 541 40,000  Level Anchorage Center
Fri 10:14:42 PM 53.9167 169.6000 241° Southwest 460 529 40,000  Level Anchorage Center
Fri 10:15:42 PM 53.8500 169.4500 233° Southwest 470 541 40,000  Level Anchorage Center
Fri 10:16:42 PM 53.7500 169.2667 227° Southwest 480 552 40,000  Level Anchorage Center
Fri 10:17:42 PM 53.7000 169.1000 243° Southwest 470 541 40,000  Level Anchorage Center
Fri 10:18:42 PM 53.6167 168.8833 237° Southwest 480 552 40,000  Level Anchorage Center
Fri 10:19:42 PM 53.5500 168.6667 243° Southwest 480 552 40,000  Level Anchorage Center
Fri 10:20:43 PM 53.5000 168.5000 243° Southwest 460 529 40,000  Level Anchorage Center
Fri 10:23:59 PM 53.2833 167.8667 239° Southwest 468 539 40,000  Level Anchorage Center
Fri 10:33:39 PM 52.6167 166.0667 238° Southwest 479 551 40,000  Level Anchorage Center
Fri 10:43:15 PM 51.9333 164.3167 236° Southwest 464 534 40,000  Level Anchorage Center
Fri 10:47:09 PM 51.6500 163.6500 236° Southwest 461 531 40,000  Level Anchorage Center
Fri 10:52:51 PM 51.2500 162.6667 235° Southwest 465 535 40,000  Level Anchorage Center
Fri 11:02:28 PM 50.5167 161.0500 234° Southwest 473 544 40,000  Level Anchorage Center
Fri 11:03:00 PM 50.4951 160.9814 234° Southwest 465 535 40,000  Level FlightAware Transoceanic
Fri 11:04:00 PM 50.4183 160.8159 234° Southwest 465 535 40,000  Level FlightAware Transoceanic
Fri 11:05:00 PM 50.3413 160.6509 234° Southwest 465 535 40,000  Level FlightAware Transoceanic
Fri 11:06:00 PM 50.2640 160.4864 234° Southwest 465 535 40,000  Level FlightAware Transoceanic
Fri 11:07:00 PM 50.1865 160.3225 233° Southwest 465 535 40,000  Level FlightAware Transoceanic
Fri 11:08:00 PM 50.0834 160.1157 234° Southwest 473 544 40,000  Level FlightAware Transoceanic
Fri 11:09:00 PM 50.0104 159.9616 234° Southwest 473 544 40,000  Level FlightAware Transoceanic
Fri 11:10:00 PM 49.9373 159.8080 233° Southwest 473 544 40,000  Level FlightAware Transoceanic
Fri 11:11:00 PM 49.8640 159.6549 233° Southwest 473 544 40,000  Level FlightAware Transoceanic
Fri 11:12:00 PM 49.7904 159.5022 233° Southwest 473 544 40,000  Level FlightAware Transoceanic
Fri 11:13:00 PM 49.7167 159.3500 233° Southwest 473 544 40,000  Level FlightAware Transoceanic
Fri 11:14:00 PM 49.6336 159.1805 233° Southwest 473 544 40,000  Level FlightAware Transoceanic
Fri 11:15:00 PM 49.5503 159.0116 233° Southwest 473 544 40,000  Level FlightAware Transoceanic
Fri 11:16:00 PM 49.4668 158.8432 233° Southwest 473 544 40,000  Level FlightAware Transoceanic
Fri 11:17:00 PM 49.3830 158.6754 232° Southwest 473 544 40,000  Level FlightAware Transoceanic
Fri 11:18:00 PM 49.2989 158.5082 232° Southwest 473 544 40,000  Level FlightAware Transoceanic
Fri 11:19:00 PM 49.2146 158.3416 232° Southwest 473 544 40,000  Level FlightAware Transoceanic
Fri 11:20:00 PM 49.1301 158.1755 232° Southwest 473 544 40,000  Level FlightAware Transoceanic
Fri 11:21:00 PM 49.0454 158.0100 232° Southwest 473 544 40,000  Level FlightAware Transoceanic
Fri 11:22:00 PM 48.9604 157.8450 232° Southwest 473 544 40,000  Level FlightAware Transoceanic
Fri 11:23:00 PM 48.8752 157.6806 232° Southwest 473 544 40,000  Level FlightAware Transoceanic
Fri 11:24:00 PM 48.7897 157.5168 232° Southwest 473 544 40,000  Level FlightAware Transoceanic
Fri 11:25:00 PM 48.7040 157.3536 231° Southwest 473 544 40,000  Level FlightAware Transoceanic
Fri 11:26:00 PM 48.6181 157.1909 231° Southwest 473 544 40,000  Level FlightAware Transoceanic
Fri 11:27:00 PM 48.5320 157.0287 231° Southwest 473 544 40,000  Level FlightAware Transoceanic
Fri 11:28:00 PM 48.4456 156.8671 231° Southwest 473 544 40,000  Level FlightAware Transoceanic
Fri 11:29:00 PM 48.3590 156.7060 231° Southwest 473 544 40,000  Level FlightAware Transoceanic
Fri 11:30:00 PM 48.2722 156.5455 231° Southwest 473 544 40,000  Level FlightAware Transoceanic
Fri 11:31:00 PM 48.1851 156.3856 231° Southwest 473 544 40,000  Level FlightAware Transoceanic
Fri 11:32:00 PM 48.0979 156.2262 231° Southwest 473 544 40,000  Level FlightAware Transoceanic
Fri 11:33:00 PM 48.0104 156.0673 230° Southwest 473 544 40,000  Level FlightAware Transoceanic
Fri 11:34:00 PM 47.9227 155.9089 230° Southwest 473 544 40,000  Level FlightAware Transoceanic
Fri 11:35:00 PM 47.8348 155.7511 230° Southwest 473 544 40,000  Level FlightAware Transoceanic
Fri 11:36:00 PM 47.7466 155.5939 230° Southwest 473 544 40,000  Level FlightAware Transoceanic
Fri 11:37:00 PM 47.6583 155.4371 230° Southwest 473 544 40,000  Level FlightAware Transoceanic
Fri 11:38:00 PM 47.5697 155.2809 230° Southwest 473 544 40,000  Level FlightAware Transoceanic
Fri 11:39:00 PM 47.4809 155.1253 230° Southwest 473 544 40,000  Level FlightAware Transoceanic
Fri 11:40:00 PM 47.3920 154.9701 230° Southwest 473 544 40,000  Level FlightAware Transoceanic
Fri 11:41:00 PM 47.3028 154.8155 230° Southwest 473 544 40,000  Level FlightAware Transoceanic
Fri 11:42:00 PM 47.2134 154.6614 229° Southwest 473 544 40,000  Level FlightAware Transoceanic
Fri 11:43:00 PM 47.1238 154.5078 229° Southwest 473 544 40,000  Level FlightAware Transoceanic
Fri 11:44:00 PM 47.0340 154.3547 229° Southwest 473 544 40,000  Level FlightAware Transoceanic
Fri 11:45:00 PM 46.9439 154.2022 229° Southwest 473 544 40,000  Level FlightAware Transoceanic
Fri 11:46:00 PM 46.8537 154.0501 229° Southwest 473 544 40,000  Level FlightAware Transoceanic
Fri 11:47:00 PM 46.7633 153.8986 229° Southwest 473 544 40,000  Level FlightAware Transoceanic
Fri 11:48:00 PM 46.6727 153.7476 229° Southwest 473 544 40,000  Level FlightAware Transoceanic
Fri 11:49:00 PM 46.5819 153.5970 229° Southwest 473 544 40,000  Level FlightAware Transoceanic
Fri 11:50:00 PM 46.4909 153.4470 229° Southwest 473 544 40,000  Level FlightAware Transoceanic
Fri 11:51:00 PM 46.3997 153.2975 228° Southwest 473 544 40,000  Level FlightAware Transoceanic
Fri 11:52:00 PM 46.3083 153.1485 228° Southwest 473 544 40,000  Level FlightAware Transoceanic
Fri 11:53:00 PM 46.2232 153.0106 228° Southwest  Level FlightAware Approximate
Fri 11:54:00 PM 46.1380 152.8730 228° Southwest  Level FlightAware Approximate
Fri 11:55:00 PM 46.1441 152.8842 228° Southwest  Level FlightAware Approximate
Fri 11:56:00 PM 46.0582 152.7478 228° Southwest  Level FlightAware Approximate
Fri 11:57:00 PM 45.9722 152.6118 228° Southwest  Level FlightAware Approximate
Fri 11:58:00 PM 45.8860 152.4762 228° Southwest  Level FlightAware Approximate
Fri 11:59:00 PM 45.7996 152.3411 228° Southwest  Level FlightAware Approximate
Sat 12:00:00 AM 45.7131 152.2063 227° Southwest  Level FlightAware Approximate
Sat 12:01:00 AM 45.6264 152.0720 227° Southwest  Level FlightAware Approximate
Sat 12:02:00 AM 45.5395 151.9381 227° Southwest  Level FlightAware Approximate
Sat 12:03:00 AM 45.4525 151.8046 227° Southwest  Level FlightAware Approximate
Sat 12:04:00 AM 45.3654 151.6716 227° Southwest  Level FlightAware Approximate
Sat 12:05:00 AM 45.2781 151.5389 227° Southwest  Level FlightAware Approximate
Sat 12:06:00 AM 45.1906 151.4066 227° Southwest  Level FlightAware Approximate
Sat 12:07:00 AM 45.1030 151.2748 227° Southwest  Level FlightAware Approximate
Sat 12:08:00 AM 45.0153 151.1433 227° Southwest  Level FlightAware Approximate
Sat 12:09:00 AM 44.9273 151.0123 227° Southwest  Level FlightAware Approximate
Sat 12:10:00 AM 44.8393 150.8816 226° Southwest  Level FlightAware Approximate
Sat 12:11:00 AM 44.7511 150.7514 226° Southwest  Level FlightAware Approximate
Sat 12:12:00 AM 44.6627 150.6215 226° Southwest  Level FlightAware Approximate
Sat 12:13:00 AM 44.5742 150.4921 226° Southwest  Level FlightAware Approximate
Sat 12:14:00 AM 44.4855 150.3630 226° Southwest  Level FlightAware Approximate
Sat 12:15:00 AM 44.3967 150.2343 226° Southwest  Level FlightAware Approximate
Sat 12:16:00 AM 44.3078 150.1061 226° Southwest  Level FlightAware Approximate
Sat 12:17:00 AM 44.2187 149.9782 226° Southwest  Level FlightAware Approximate
Sat 12:18:00 AM 44.1295 149.8507 226° Southwest  Level FlightAware Approximate
Sat 12:19:00 AM 44.0401 149.7236 226° Southwest  Level FlightAware Approximate
Sat 12:20:00 AM 43.9506 149.5968 226° Southwest  Level FlightAware Approximate
Sat 12:21:00 AM 43.8610 149.4705 225° Southwest  Level FlightAware Approximate
Sat 12:22:00 AM 43.7712 149.3445 225° Southwest  Level FlightAware Approximate
Sat 12:23:00 AM 43.6812 149.2189 225° Southwest  Level FlightAware Approximate
Sat 12:24:00 AM 43.5912 149.0937 225° Southwest  Level FlightAware Approximate
Sat 12:25:00 AM 43.5010 148.9689 225° Southwest  Level FlightAware Approximate
Sat 12:26:00 AM 43.4106 148.8444 225° Southwest  Level FlightAware Approximate
Sat 12:27:00 AM 43.3202 148.7203 225° Southwest  Level FlightAware Approximate
Sat 12:28:00 AM 43.2296 148.5966 225° Southwest  Level FlightAware Approximate
Sat 12:29:00 AM 43.1388 148.4732 225° Southwest  Level FlightAware Approximate
Sat 12:30:00 AM 43.0480 148.3502 225° Southwest  Level FlightAware Approximate
Sat 12:31:00 AM 42.9570 148.2276 225° Southwest  Level FlightAware Approximate
Sat 12:32:00 AM 42.8658 148.1053 225° Southwest  Level FlightAware Approximate
Sat 12:33:00 AM 42.7746 147.9834 224° Southwest  Level FlightAware Approximate
Sat 12:34:00 AM 42.6832 147.8618 224° Southwest  Level FlightAware Approximate
Sat 12:35:00 AM 42.5917 147.7406 224° Southwest  Level FlightAware Approximate
Sat 12:36:00 AM 42.5000 147.6198 224° Southwest  Level FlightAware Approximate
Sat 12:37:00 AM 42.4083 147.4993 224° Southwest  Level FlightAware Approximate
Sat 12:38:00 AM 42.3170 147.3782 225° Southwest  Level FlightAware Approximate
Sat 12:39:00 AM 42.2259 147.2572 225° Southwest  Level FlightAware Approximate
Sat 12:40:00 AM 42.1347 147.1364 224° Southwest  Level FlightAware Approximate
Sat 12:41:00 AM 42.0434 147.0161 224° Southwest  Level FlightAware Approximate
Sat 12:42:00 AM 41.9519 146.8961 224° Southwest  Level FlightAware Approximate
Sat 12:43:00 AM 41.8598 146.7770 224° Southwest  Level FlightAware Approximate
Sat 12:44:00 AM 41.7674 146.6586 224° Southwest  Level FlightAware Approximate
Sat 12:45:00 AM 41.6749 146.5406 224° Southwest  Level FlightAware Approximate
Sat 12:46:00 AM 41.5822 146.4229 224° Southwest  Level FlightAware Approximate
Sat 12:47:00 AM 41.4894 146.3056 223° Southwest  Level FlightAware Approximate
Sat 12:48:00 AM 41.3965 146.1886 223° Southwest  Level FlightAware Approximate
Sat 12:49:00 AM 41.3035 146.0720 223° Southwest  Level FlightAware Approximate
Sat 12:50:00 AM 41.2103 145.9556 223° Southwest  Level FlightAware Approximate
Sat 12:51:00 AM 41.1171 145.8396 223° Southwest  Level FlightAware Approximate
Sat 12:52:00 AM 41.0237 145.7240 223° Southwest  Level FlightAware Approximate
Sat 12:53:00 AM 40.9302 145.6086 223° Southwest  Level FlightAware Approximate
Sat 12:54:00 AM 40.8366 145.4936 223° Southwest  Level FlightAware Approximate
Sat 12:55:00 AM 40.7428 145.3789 223° Southwest  Level FlightAware Approximate
Sat 12:56:00 AM 40.6490 145.2645 223° Southwest  Level FlightAware Approximate
Sat 12:57:00 AM 40.5550 145.1505 223° Southwest  Level FlightAware Approximate
Sat 12:58:00 AM 40.4610 145.0368 223° Southwest  Level FlightAware Approximate
Sat 12:59:00 AM 40.3668 144.9233 223° Southwest  Level FlightAware Approximate
Sat 01:00:00 AM 40.2738 144.8115 223° Southwest  Level FlightAware Approximate
Sat 01:01:00 AM 40.1805 144.7000 222° Southwest  Level FlightAware Approximate
Sat 01:02:00 AM 40.0872 144.5888 222° Southwest  Level FlightAware Approximate
Sat 01:03:00 AM 39.9938 144.4779 222° Southwest  Level FlightAware Approximate
Sat 01:04:00 AM 39.9003 144.3674 222° Southwest  Level FlightAware Approximate
Sat 01:05:00 AM 39.8067 144.2571 222° Southwest  Level FlightAware Approximate
Sat 01:06:00 AM 39.7130 144.1471 222° Southwest  Level FlightAware Approximate
Sat 01:07:00 AM 39.6192 144.0374 222° Southwest  Level FlightAware Approximate
Sat 01:08:00 AM 39.5252 143.9280 222° Southwest  Level FlightAware Approximate
Sat 01:09:00 AM 39.4312 143.8190 222° Southwest  Level FlightAware Approximate
Sat 01:10:00 AM 39.3371 143.7101 222° Southwest  Level FlightAware Approximate
Sat 01:11:00 AM 39.2429 143.6017 222° Southwest  Level FlightAware Approximate
Sat 01:12:00 AM 39.1482 143.4939 221° Southwest  Level FlightAware Approximate
Sat 01:13:00 AM 39.0529 143.3872 221° Southwest  Level FlightAware Approximate
Sat 01:14:00 AM 38.9576 143.2807 221° Southwest  Level FlightAware Approximate
Sat 01:15:00 AM 38.8520 143.1984 197° South  Level FlightAware Approximate
Sat 01:16:00 AM 38.7310 143.1523 197° South  Level FlightAware Approximate
Sat 01:17:00 AM 38.6100 143.1064 197° South  Level FlightAware Approximate
Sat 01:18:00 AM 38.4889 143.0607 196° South  Level FlightAware Approximate
Sat 01:19:00 AM 38.3679 143.0151 196° South  Level FlightAware Approximate
Sat 01:20:00 AM 38.2468 142.9697 196° South  Level FlightAware Approximate
Sat 01:21:00 AM 38.1257 142.9244 196° South  Level FlightAware Approximate
Sat 01:22:00 AM 38.0046 142.8793 196° South  Level FlightAware Approximate
Sat 01:23:00 AM 37.8834 142.8343 196° South  Level FlightAware Approximate
Sat 01:24:00 AM 37.7623 142.7894 196° South  Level FlightAware Approximate
Sat 01:25:00 AM 37.6411 142.7448 196° South  Level FlightAware Approximate
Sat 01:26:00 AM 37.5199 142.7002 196° South  Level FlightAware Approximate
Sat 01:27:00 AM 37.3987 142.6558 196° South  Level FlightAware Approximate
Sat 01:28:00 AM 37.2775 142.6116 196° South  Level FlightAware Approximate
Sat 01:29:00 AM 37.1566 142.5663 197° South  Level FlightAware Approximate
Sat 01:30:00 AM 37.0361 142.5190 197° South  Level FlightAware Approximate
Sat 01:31:00 AM 36.9156 142.4719 197° South  Level FlightAware Approximate
Sat 01:32:00 AM 36.7949 142.4261 195° South  Level FlightAware Approximate
Sat 01:33:00 AM 36.6729 142.3854 195° South  Level FlightAware Approximate
Sat 01:34:00 AM 36.5512 142.3438 198° South  Level FlightAware Approximate
Sat 01:35:00 AM 36.4303 142.2990 195° South  Level FlightAware Approximate
Sat 01:36:00 AM 36.3084 142.2583 195° South  Level FlightAware Approximate
Sat 01:37:00 AM 36.1865 142.2177 195° South  Level FlightAware Approximate
Sat 01:38:00 AM 36.0646 142.1771 195° South  Level FlightAware Approximate
Sat 01:39:00 AM 36.0170 142.0524 260° West  Level FlightAware Approximate
Sat 01:40:00 AM 35.9784 141.9039 252° West  Level FlightAware Approximate
Sat 01:41:00 AM 35.9392 141.7557 252° West  Level FlightAware Approximate
Sat 01:42:00 AM 35.9017 141.6069 253° West  Level FlightAware Approximate
Sat 01:43:00 AM 35.8902 141.4519 265° West  Level FlightAware Approximate
Sat 01:44:00 AM 35.8746 141.2975 258° West  Level FlightAware Approximate
Sat 01:45:00 AM 35.8494 141.1449 261° West  Level FlightAware Approximate
Sat 01:46:00 AM 35.8302 140.9910 261° West  Level FlightAware Approximate
Sat 01:47:00 AM 35.8167 140.8367 270° West  Level FlightAware Approximate
Sat 01:48:00 AM 35.7999 140.6824 258° West  Level FlightAware Approximate
Sat 01:49:00 AM 35.7745 140.5300 258° West  Level FlightAware Approximate
Sat 01:50:00 AM 35.7500 140.3833 253° West  Level FlightAware Approximate
Sat 01:51:00 AM 35.7647 140.3864 253° West  Level Estimated
Sat 01:52:00 AM 35.7647 140.3864 253° West  Level Estimated
Sat 01:53:00 AM 35.7647 140.3864 253° West  Level Estimated
Sat 01:54:00 AM 35.7647 140.3864 253° West  Level Estimated
Sat 01:55:00 AM 35.7647 140.3864 253° West  Level Estimated
Sat 01:56:00 AM 35.7647 140.3864 253° West  Level Estimated
Sat 01:57:00 AM 35.7647 140.3864 253° West  Level Estimated
Sat 01:58:00 AM 35.7647 140.3864 253° West  Level Estimated
Sat 01:59:00 AM 35.7647 140.3864 253° West  Level Estimated
Sat 02:00:00 AM 35.7647 140.3864 253° West  Level Estimated
Sat 02:01:00 AM 35.7647 140.3864 253° West  Level Estimated
Sat 02:02:00 AM 35.7647 140.3864 253° West  Level Estimated
Sat 02:03:00 AM 35.7647 140.3864 253° West  Level Estimated
Sat 02:04:00 AM 35.7647 140.3864 253° West  Level Estimated
Sat 02:05:00 AM 35.7647 140.3864 253° West  Level Estimated
Sat 02:06:00 AM 35.7647 140.3864 253° West  Level Estimated
Sat 02:07:00 AM 35.7647 140.3864 253° West  Level Estimated
Sat 02:08:00 AM 35.7647 140.3864 253° West  Level Estimated
Sat 02:09:00 AM 35.7647 140.3864 253° West  Level Estimated
Sat 02:10:00 AM 35.7647 140.3864 253° West  Level Estimated
Sat 02:11:00 AM 35.7647 140.3864 253° West  Level Estimated
Sat 02:12:00 AM 35.7647 140.3864 253° West  Level Estimated
Sat 02:13:00 AM 35.7647 140.3864 253° West  Level Estimated
Sat 02:14:00 AM 35.7647 140.3864 253° West  Level Estimated
Sat 02:15:00 AM 35.7647 140.3864 253° West  Level Estimated
Sat 02:16:00 AM 35.7647 140.3864 253° West  Level Estimated
Sat 02:17:00 AM 35.7647 140.3864 253° West  Level Estimated
Sat 02:18:00 AM 35.7647 140.3864 253° West  Level Estimated

Login

Don't have an account? Register now (free) for customized features, flight alerts, and more!